📊 Raw Sensor Data

Showing records 49476 to 49500 of 85,120 total

ID Distance (ft) Battery V Battery A Int Temp (°F) Int Humid (%) Ext Temp (°F) Solar V RSSI SNR Time Stamp
35657 -- 4.04 -5 51 40 52 0.00 -80 7 03/21/2025 11:45 PM
35656 -- 3.98 -5 51 40 52 0.00 -80 7 03/21/2025 11:30 PM
35655 15.1 4.04 -5 51 40 52 0.00 -79 7 03/21/2025 11:15 PM
35654 15.1 3.99 -5 51 40 52 0.10 -80 7 03/21/2025 11:00 PM
35653 15.1 3.99 -5 51 40 52 0.00 -79 8 03/21/2025 10:45 PM
35652 15.1 3.99 -5 52 40 53 0.10 -77 8 03/21/2025 10:30 PM
35651 15.1 3.99 -5 52 40 53 0.10 -79 7 03/21/2025 10:15 PM
35650 15.1 3.99 -5 52 40 53 0.00 -79 8 03/21/2025 10:00 PM
35649 15.1 3.99 -5 52 40 53 0.00 -79 8 03/21/2025 09:45 PM
35648 15.1 4.04 -5 53 40 54 0.00 -78 8 03/21/2025 09:30 PM
35647 15.1 3.99 -5 53 40 54 0.00 -78 8 03/21/2025 09:15 PM
35646 15.0 4.05 -5 53 41 54 0.10 -81 8 03/21/2025 09:00 PM
35645 15.1 3.99 -5 53 41 54 0.00 -83 8 03/21/2025 08:45 PM
35644 15.1 3.99 -5 53 41 55 0.00 -81 7 03/21/2025 08:30 PM
35643 -- 4.05 -5 53 42 55 0.00 -83 7 03/21/2025 08:15 PM
35642 -- 4.00 -5 53 43 53 0.10 -82 7 03/21/2025 08:00 PM
35641 -- 4.05 -5 55 44 54 0.10 -83 7 03/21/2025 07:45 PM
35640 -- 4.00 -5 56 44 55 0.80 -83 8 03/21/2025 07:30 PM
35639 15.1 3.99 -9 59 43 57 4.00 -84 8 03/21/2025 07:15 PM
35638 -- 4.01 0 63 42 62 4.50 -84 9 03/21/2025 06:45 PM
35637 -- 4.02 0 63 42 61 4.50 -84 8 03/21/2025 06:30 PM
35636 -- 4.08 7 64 43 61 4.50 -85 8 03/21/2025 06:15 PM
35635 -- 4.11 8 65 43 62 4.50 -85 9 03/21/2025 06:00 PM
35634 -- 4.07 0 67 42 62 4.60 -84 8 03/21/2025 05:45 PM
35633 -- 4.05 0 68 42 62 5.10 -85 7 03/21/2025 05:30 PM